SAS295 ESGG-EDDV
Flight info
| Callsign | SAS295 |
|---|---|
| Flight time | 0h 58m |
| Altitude | 38000 |
| Route | VADIN M852 ALASA/N0446F390 M852 EKERN/N0442F380 N125 ELSOB/N0446F390 N850 NIE NIE1L |
| Aircraft | A20N/M-SDE2E3FGHIRWXY/LB1 |
Departure
| Time | 2026-05-06 12:42 |
|---|---|
| Airport | Göteborg Landvetter Airport (ESGG) |
Arrival
| Time | 2026-05-06 13:41 |
|---|---|
| Airport | Hannover Airport (EDDV) |
| Time | Latitude | Longitude | Altitude | Speed | Heading |
|---|---|---|---|---|---|
| 2026-05-06 12:25 | 57.66728 | 12.29268 | 516 ft | 0 kts | 116° |
| 2026-05-06 12:35 | 57.66733 | 12.29247 | 516 ft | 2 kts | 116° |
| 2026-05-06 12:35 | 57.66739 | 12.29226 | 516 ft | 2 kts | 116° |
| 2026-05-06 12:35 | 57.66745 | 12.29201 | 515 ft | 2 kts | 107° |
| 2026-05-06 12:35 | 57.66748 | 12.29174 | 515 ft | 2 kts | 82° |
| 2026-05-06 12:36 | 57.66744 | 12.29147 | 515 ft | 2 kts | 62° |
| 2026-05-06 12:36 | 57.66736 | 12.29123 | 515 ft | 2 kts | 43° |
| 2026-05-06 12:36 | 57.66734 | 12.29120 | 515 ft | 0 kts | 40° |
| 2026-05-06 12:38 | 57.66736 | 12.29121 | 515 ft | 2 kts | 32° |
| 2026-05-06 12:38 | 57.66760 | 12.29119 | 515 ft | 5 kts | 338° |
| 2026-05-06 12:39 | 57.66785 | 12.29061 | 515 ft | 7 kts | 302° |
| 2026-05-06 12:39 | 57.66831 | 12.29017 | 515 ft | 8 kts | 355° |
| 2026-05-06 12:39 | 57.66895 | 12.29048 | 515 ft | 11 kts | 22° |
| 2026-05-06 12:39 | 57.66970 | 12.29116 | 515 ft | 13 kts | 27° |
| 2026-05-06 12:40 | 57.67061 | 12.29201 | 516 ft | 16 kts | 27° |
| 2026-05-06 12:40 | 57.67165 | 12.29299 | 515 ft | 18 kts | 26° |
| 2026-05-06 12:40 | 57.67282 | 12.29404 | 515 ft | 20 kts | 25° |
| 2026-05-06 12:40 | 57.67393 | 12.29472 | 516 ft | 14 kts | 340° |
| 2026-05-06 12:41 | 57.67438 | 12.29321 | 515 ft | 14 kts | 284° |
| 2026-05-06 12:41 | 57.67451 | 12.29121 | 514 ft | 17 kts | 264° |
| 2026-05-06 12:41 | 57.67444 | 12.29081 | 515 ft | 6 kts | 234° |
| 2026-05-06 12:41 | 57.67395 | 12.28997 | 515 ft | 12 kts | 209° |
| 2026-05-06 12:42 | 57.67186 | 12.28803 | 514 ft | 67 kts | 206° |
| 2026-05-06 12:42 | 57.66570 | 12.28238 | 511 ft | 127 kts | 206° |
| 2026-05-06 12:42 | 57.65629 | 12.27393 | 530 ft | 169 kts | 206° |
| 2026-05-06 12:42 | 57.64590 | 12.26534 | 1208 ft | 160 kts | 205° |
| 2026-05-06 12:43 | 57.63555 | 12.25703 | 1911 ft | 162 kts | 205° |
| 2026-05-06 12:43 | 57.62503 | 12.24808 | 2431 ft | 179 kts | 206° |
| 2026-05-06 12:43 | 57.61334 | 12.23682 | 2973 ft | 199 kts | 210° |
| 2026-05-06 12:43 | 57.60069 | 12.22350 | 3520 ft | 218 kts | 208° |
| 2026-05-06 12:44 | 57.58620 | 12.21155 | 4040 ft | 239 kts | 190° |
| 2026-05-06 12:44 | 57.56908 | 12.21292 | 4715 ft | 256 kts | 166° |
| 2026-05-06 12:44 | 57.55141 | 12.21915 | 5741 ft | 260 kts | 174° |
| 2026-05-06 12:44 | 57.53326 | 12.21922 | 6858 ft | 263 kts | 183° |
| 2026-05-06 12:45 | 57.51485 | 12.21663 | 7817 ft | 269 kts | 185° |
| 2026-05-06 12:45 | 57.49602 | 12.21340 | 8768 ft | 275 kts | 185° |
| 2026-05-06 12:45 | 57.45705 | 12.20544 | 10451 ft | 293 kts | 190° |
| 2026-05-06 12:46 | 57.43700 | 12.19357 | 10819 ft | 314 kts | 208° |
| 2026-05-06 12:46 | 57.41918 | 12.16948 | 11308 ft | 328 kts | 226° |
| 2026-05-06 12:46 | 57.40324 | 12.13890 | 12214 ft | 331 kts | 226° |
| 2026-05-06 12:46 | 57.38707 | 12.10820 | 13084 ft | 335 kts | 226° |
| 2026-05-06 12:47 | 57.37062 | 12.07720 | 13919 ft | 338 kts | 226° |
| 2026-05-06 12:47 | 57.35405 | 12.04610 | 14724 ft | 340 kts | 226° |
| 2026-05-06 12:47 | 57.33741 | 12.01493 | 15542 ft | 341 kts | 226° |
| 2026-05-06 12:47 | 57.32068 | 11.98364 | 16329 ft | 343 kts | 227° |
| 2026-05-06 12:48 | 57.30933 | 11.96241 | 16860 ft | 344 kts | 227° |
| 2026-05-06 12:48 | 57.29243 | 11.93085 | 17624 ft | 347 kts | 227° |
| 2026-05-06 12:48 | 57.27538 | 11.89907 | 18373 ft | 349 kts | 227° |
| 2026-05-06 12:48 | 57.25849 | 11.86761 | 19038 ft | 350 kts | 227° |
| 2026-05-06 12:49 | 57.24131 | 11.83567 | 19737 ft | 351 kts | 227° |
| 2026-05-06 12:49 | 57.22406 | 11.80364 | 20406 ft | 353 kts | 227° |
| 2026-05-06 12:49 | 57.20672 | 11.77147 | 21076 ft | 354 kts | 227° |
| 2026-05-06 12:49 | 57.18926 | 11.73915 | 21742 ft | 356 kts | 227° |
| 2026-05-06 12:50 | 57.17174 | 11.70675 | 22401 ft | 358 kts | 227° |
| 2026-05-06 12:50 | 57.15368 | 11.67488 | 23034 ft | 361 kts | 223° |
| 2026-05-06 12:50 | 57.13355 | 11.64677 | 23641 ft | 366 kts | 216° |
| 2026-05-06 12:50 | 57.11138 | 11.62328 | 24160 ft | 370 kts | 210° |
| 2026-05-06 12:51 | 57.08762 | 11.60417 | 24667 ft | 374 kts | 206° |
| 2026-05-06 12:51 | 57.06358 | 11.58558 | 25168 ft | 376 kts | 206° |
| 2026-05-06 12:51 | 57.03945 | 11.56677 | 25656 ft | 378 kts | 206° |
| 2026-05-06 12:51 | 57.01514 | 11.54779 | 26139 ft | 380 kts | 206° |
| 2026-05-06 12:52 | 56.99074 | 11.52872 | 26609 ft | 382 kts | 206° |
| 2026-05-06 12:52 | 56.96619 | 11.50955 | 27065 ft | 385 kts | 206° |
| 2026-05-06 12:52 | 56.94150 | 11.49030 | 27504 ft | 387 kts | 206° |
| 2026-05-06 12:52 | 56.91665 | 11.47095 | 27935 ft | 389 kts | 206° |
| 2026-05-06 12:53 | 56.89173 | 11.45157 | 28346 ft | 391 kts | 206° |
| 2026-05-06 12:53 | 56.86661 | 11.43207 | 28746 ft | 393 kts | 206° |
| 2026-05-06 12:53 | 56.84135 | 11.41250 | 29127 ft | 395 kts | 206° |
| 2026-05-06 12:53 | 56.81597 | 11.39286 | 29501 ft | 397 kts | 206° |
| 2026-05-06 12:54 | 56.79044 | 11.37314 | 29871 ft | 400 kts | 206° |
| 2026-05-06 12:54 | 56.76475 | 11.35332 | 30213 ft | 402 kts | 206° |
| 2026-05-06 12:54 | 56.73896 | 11.33345 | 30520 ft | 404 kts | 205° |
| 2026-05-06 12:54 | 56.71298 | 11.31348 | 30830 ft | 406 kts | 205° |
| 2026-05-06 12:55 | 56.68691 | 11.29346 | 31167 ft | 407 kts | 205° |
| 2026-05-06 12:55 | 56.66080 | 11.27345 | 31571 ft | 407 kts | 205° |
| 2026-05-06 12:55 | 56.63476 | 11.25352 | 31987 ft | 406 kts | 205° |
| 2026-05-06 12:55 | 56.60876 | 11.23366 | 32396 ft | 405 kts | 205° |
| 2026-05-06 12:56 | 56.58274 | 11.21380 | 32792 ft | 404 kts | 205° |
| 2026-05-06 12:56 | 56.55687 | 11.19408 | 33183 ft | 404 kts | 205° |
| 2026-05-06 12:56 | 56.53099 | 11.17440 | 33560 ft | 403 kts | 205° |
| 2026-05-06 12:56 | 56.50515 | 11.15476 | 33928 ft | 402 kts | 205° |
| 2026-05-06 12:57 | 56.47967 | 11.13542 | 34211 ft | 402 kts | 205° |
| 2026-05-06 12:57 | 56.45379 | 11.11582 | 34430 ft | 404 kts | 205° |
| 2026-05-06 12:57 | 56.42784 | 11.09619 | 34661 ft | 405 kts | 205° |
| 2026-05-06 12:57 | 56.40184 | 11.07655 | 34890 ft | 406 kts | 205° |
| 2026-05-06 12:58 | 56.37580 | 11.05692 | 35106 ft | 407 kts | 205° |
| 2026-05-06 12:58 | 56.34962 | 11.03720 | 35321 ft | 408 kts | 205° |
| 2026-05-06 12:58 | 56.32341 | 11.01749 | 35531 ft | 409 kts | 205° |
| 2026-05-06 12:58 | 56.29714 | 10.99777 | 35739 ft | 410 kts | 205° |
| 2026-05-06 12:59 | 56.27081 | 10.97803 | 35948 ft | 410 kts | 205° |
| 2026-05-06 12:59 | 56.24440 | 10.95826 | 36145 ft | 411 kts | 205° |
| 2026-05-06 12:59 | 56.21794 | 10.93848 | 36340 ft | 412 kts | 205° |
| 2026-05-06 12:59 | 56.19144 | 10.91869 | 36530 ft | 413 kts | 205° |
| 2026-05-06 13:00 | 56.16491 | 10.89893 | 36735 ft | 414 kts | 205° |
| 2026-05-06 13:00 | 56.13828 | 10.87910 | 36909 ft | 414 kts | 205° |
| 2026-05-06 13:00 | 56.11162 | 10.85931 | 37095 ft | 415 kts | 205° |
| 2026-05-06 13:00 | 56.08493 | 10.83954 | 37257 ft | 416 kts | 205° |
| 2026-05-06 13:01 | 56.05812 | 10.81968 | 37438 ft | 417 kts | 205° |
| 2026-05-06 13:01 | 56.03133 | 10.79987 | 37609 ft | 417 kts | 205° |
| 2026-05-06 13:01 | 56.00447 | 10.78003 | 37770 ft | 418 kts | 205° |
| 2026-05-06 13:01 | 55.97761 | 10.76023 | 37931 ft | 419 kts | 205° |
| 2026-05-06 13:02 | 55.95065 | 10.74038 | 37931 ft | 419 kts | 205° |
| 2026-05-06 13:02 | 55.89691 | 10.70092 | 37928 ft | 418 kts | 205° |
| 2026-05-06 13:03 | 55.84305 | 10.66148 | 37931 ft | 418 kts | 205° |
| 2026-05-06 13:03 | 55.78923 | 10.62219 | 37928 ft | 419 kts | 204° |
| 2026-05-06 13:04 | 55.73567 | 10.58321 | 37929 ft | 418 kts | 204° |
| 2026-05-06 13:04 | 55.68180 | 10.54413 | 37931 ft | 418 kts | 204° |
| 2026-05-06 13:05 | 55.62798 | 10.50519 | 37928 ft | 418 kts | 204° |
| 2026-05-06 13:05 | 55.57414 | 10.46635 | 37929 ft | 418 kts | 204° |
| 2026-05-06 13:06 | 55.52025 | 10.42760 | 37936 ft | 418 kts | 204° |
| 2026-05-06 13:06 | 55.46629 | 10.38890 | 37932 ft | 419 kts | 204° |
| 2026-05-06 13:07 | 55.41229 | 10.35029 | 37934 ft | 419 kts | 204° |
| 2026-05-06 13:07 | 55.35828 | 10.31179 | 37935 ft | 419 kts | 204° |
| 2026-05-06 13:08 | 55.30411 | 10.27329 | 37931 ft | 420 kts | 204° |
| 2026-05-06 13:08 | 55.24992 | 10.23489 | 37927 ft | 420 kts | 204° |
| 2026-05-06 13:09 | 55.19563 | 10.19654 | 37925 ft | 421 kts | 204° |
| 2026-05-06 13:09 | 55.14129 | 10.15825 | 37917 ft | 421 kts | 204° |
| 2026-05-06 13:10 | 55.08683 | 10.12000 | 37917 ft | 422 kts | 204° |
| 2026-05-06 13:10 | 55.03234 | 10.08185 | 37918 ft | 422 kts | 204° |
| 2026-05-06 13:11 | 54.97793 | 10.04385 | 37915 ft | 422 kts | 203° |
| 2026-05-06 13:11 | 54.92332 | 10.00647 | 37912 ft | 422 kts | 201° |
| 2026-05-06 13:12 | 54.86658 | 9.97980 | 37908 ft | 424 kts | 192° |
| 2026-05-06 13:12 | 54.80854 | 9.96139 | 37902 ft | 424 kts | 193° |
| 2026-05-06 13:13 | 54.75101 | 9.94282 | 37901 ft | 424 kts | 193° |
| 2026-05-06 13:13 | 54.69306 | 9.92394 | 37901 ft | 424 kts | 193° |
| 2026-05-06 13:14 | 54.63504 | 9.90508 | 37888 ft | 424 kts | 193° |
| 2026-05-06 13:14 | 54.57700 | 9.88652 | 37887 ft | 424 kts | 192° |
| 2026-05-06 13:15 | 54.51889 | 9.86802 | 37884 ft | 425 kts | 192° |
| 2026-05-06 13:15 | 54.46077 | 9.84945 | 37906 ft | 425 kts | 193° |
| 2026-05-06 13:16 | 54.40264 | 9.83080 | 37907 ft | 425 kts | 193° |
| 2026-05-06 13:16 | 54.34446 | 9.81222 | 37888 ft | 425 kts | 192° |
| 2026-05-06 13:17 | 54.28624 | 9.79368 | 37888 ft | 426 kts | 192° |
| 2026-05-06 13:17 | 54.22799 | 9.77511 | 37671 ft | 426 kts | 193° |
| 2026-05-06 13:17 | 54.19895 | 9.76524 | 37185 ft | 426 kts | 193° |
| 2026-05-06 13:18 | 54.17006 | 9.75518 | 36645 ft | 421 kts | 193° |
| 2026-05-06 13:18 | 54.14151 | 9.74522 | 36127 ft | 418 kts | 193° |
| 2026-05-06 13:18 | 54.11299 | 9.73535 | 35622 ft | 419 kts | 192° |
| 2026-05-06 13:18 | 54.08439 | 9.72550 | 35131 ft | 420 kts | 192° |
| 2026-05-06 13:19 | 54.05579 | 9.71570 | 34635 ft | 418 kts | 192° |
| 2026-05-06 13:19 | 54.02722 | 9.70594 | 34175 ft | 421 kts | 192° |
| 2026-05-06 13:19 | 53.99840 | 9.69611 | 33673 ft | 423 kts | 192° |
| 2026-05-06 13:19 | 53.96964 | 9.68632 | 33109 ft | 421 kts | 191° |
| 2026-05-06 13:20 | 53.94092 | 9.67657 | 32559 ft | 421 kts | 191° |
| 2026-05-06 13:20 | 53.91211 | 9.66680 | 32026 ft | 425 kts | 191° |
| 2026-05-06 13:20 | 53.88303 | 9.65695 | 31464 ft | 428 kts | 191° |
| 2026-05-06 13:20 | 53.85369 | 9.64703 | 30849 ft | 431 kts | 191° |
| 2026-05-06 13:21 | 53.82460 | 9.63720 | 30259 ft | 432 kts | 191° |
| 2026-05-06 13:21 | 53.79516 | 9.62726 | 29620 ft | 430 kts | 191° |
| 2026-05-06 13:21 | 53.76592 | 9.61742 | 28941 ft | 426 kts | 191° |
| 2026-05-06 13:21 | 53.73697 | 9.60770 | 28274 ft | 422 kts | 191° |
| 2026-05-06 13:22 | 53.70833 | 9.59809 | 27623 ft | 418 kts | 191° |
| 2026-05-06 13:22 | 53.67989 | 9.58855 | 26995 ft | 415 kts | 191° |
| 2026-05-06 13:22 | 53.65164 | 9.57990 | 26365 ft | 411 kts | 188° |
| 2026-05-06 13:22 | 53.62325 | 9.57567 | 25760 ft | 408 kts | 184° |
| 2026-05-06 13:23 | 53.59508 | 9.57253 | 25166 ft | 404 kts | 184° |
| 2026-05-06 13:23 | 53.56712 | 9.56938 | 24587 ft | 401 kts | 185° |
| 2026-05-06 13:23 | 53.53941 | 9.56621 | 24016 ft | 397 kts | 185° |
| 2026-05-06 13:23 | 53.51200 | 9.56188 | 23452 ft | 394 kts | 188° |
| 2026-05-06 13:24 | 53.48489 | 9.55593 | 22788 ft | 391 kts | 188° |
| 2026-05-06 13:24 | 53.45799 | 9.55003 | 22134 ft | 388 kts | 188° |
| 2026-05-06 13:24 | 53.43132 | 9.54421 | 21501 ft | 385 kts | 188° |
| 2026-05-06 13:24 | 53.40481 | 9.53845 | 20880 ft | 383 kts | 187° |
| 2026-05-06 13:25 | 53.37850 | 9.53275 | 20272 ft | 380 kts | 187° |
| 2026-05-06 13:25 | 53.35235 | 9.52711 | 19668 ft | 378 kts | 187° |
| 2026-05-06 13:25 | 53.32639 | 9.52151 | 19079 ft | 375 kts | 187° |
| 2026-05-06 13:25 | 53.30064 | 9.51596 | 18508 ft | 372 kts | 187° |
| 2026-05-06 13:26 | 53.27503 | 9.51046 | 17904 ft | 369 kts | 187° |
| 2026-05-06 13:26 | 53.24964 | 9.50501 | 17256 ft | 367 kts | 187° |
| 2026-05-06 13:26 | 53.22440 | 9.49959 | 16624 ft | 364 kts | 187° |
| 2026-05-06 13:26 | 53.19937 | 9.49422 | 16003 ft | 362 kts | 187° |
| 2026-05-06 13:27 | 53.17449 | 9.48889 | 15398 ft | 359 kts | 187° |
| 2026-05-06 13:27 | 53.14972 | 9.48359 | 14802 ft | 357 kts | 187° |
| 2026-05-06 13:27 | 53.12515 | 9.47834 | 14222 ft | 355 kts | 187° |
| 2026-05-06 13:27 | 53.10067 | 9.47311 | 13639 ft | 353 kts | 186° |
| 2026-05-06 13:28 | 53.07640 | 9.46793 | 13096 ft | 349 kts | 186° |
| 2026-05-06 13:28 | 53.05243 | 9.46283 | 12569 ft | 345 kts | 186° |
| 2026-05-06 13:28 | 53.02886 | 9.45782 | 12032 ft | 336 kts | 186° |
| 2026-05-06 13:28 | 53.00607 | 9.45297 | 11527 ft | 324 kts | 186° |
| 2026-05-06 13:29 | 52.98404 | 9.44829 | 11070 ft | 313 kts | 186° |
| 2026-05-06 13:29 | 52.96310 | 9.44381 | 10886 ft | 293 kts | 186° |
| 2026-05-06 13:29 | 52.94352 | 9.43961 | 10849 ft | 281 kts | 186° |
| 2026-05-06 13:29 | 52.92398 | 9.43545 | 10843 ft | 284 kts | 186° |
| 2026-05-06 13:30 | 52.90448 | 9.43130 | 10837 ft | 281 kts | 186° |
| 2026-05-06 13:30 | 52.88512 | 9.42718 | 10840 ft | 281 kts | 187° |
| 2026-05-06 13:30 | 52.86577 | 9.42306 | 10838 ft | 281 kts | 187° |
| 2026-05-06 13:30 | 52.84639 | 9.41895 | 10837 ft | 280 kts | 187° |
| 2026-05-06 13:31 | 52.82697 | 9.41482 | 10658 ft | 282 kts | 187° |
| 2026-05-06 13:31 | 52.80742 | 9.41066 | 10190 ft | 285 kts | 187° |
| 2026-05-06 13:31 | 52.78788 | 9.40649 | 9727 ft | 289 kts | 187° |
| 2026-05-06 13:31 | 52.76782 | 9.40217 | 9200 ft | 292 kts | 187° |
| 2026-05-06 13:32 | 52.74732 | 9.39790 | 8667 ft | 295 kts | 187° |
| 2026-05-06 13:32 | 52.72729 | 9.39360 | 8202 ft | 292 kts | 187° |
| 2026-05-06 13:32 | 52.70733 | 9.38922 | 7815 ft | 287 kts | 187° |
| 2026-05-06 13:32 | 52.68784 | 9.38470 | 7431 ft | 277 kts | 187° |
| 2026-05-06 13:33 | 52.66917 | 9.38003 | 7081 ft | 267 kts | 187° |
| 2026-05-06 13:33 | 52.65061 | 9.37530 | 6736 ft | 271 kts | 187° |
| 2026-05-06 13:33 | 52.63205 | 9.37051 | 6391 ft | 270 kts | 187° |
| 2026-05-06 13:33 | 52.61343 | 9.36558 | 6050 ft | 271 kts | 187° |
| 2026-05-06 13:34 | 52.59486 | 9.36067 | 5686 ft | 269 kts | 187° |
| 2026-05-06 13:34 | 52.57645 | 9.35579 | 5324 ft | 267 kts | 187° |
| 2026-05-06 13:34 | 52.55818 | 9.35098 | 5053 ft | 266 kts | 187° |
| 2026-05-06 13:34 | 52.53984 | 9.34614 | 4728 ft | 267 kts | 187° |
| 2026-05-06 13:35 | 52.52155 | 9.34135 | 4367 ft | 265 kts | 187° |
| 2026-05-06 13:35 | 52.50337 | 9.33662 | 4008 ft | 263 kts | 187° |
| 2026-05-06 13:35 | 52.49121 | 9.33402 | 3819 ft | 257 kts | 177° |
| 2026-05-06 13:35 | 52.47120 | 9.34805 | 3662 ft | 231 kts | 128° |
| 2026-05-06 13:36 | 52.46616 | 9.36273 | 3590 ft | 218 kts | 108° |
| 2026-05-06 13:36 | 52.46318 | 9.38624 | 3500 ft | 205 kts | 96° |
| 2026-05-06 13:36 | 52.46231 | 9.40893 | 3377 ft | 194 kts | 92° |
| 2026-05-06 13:36 | 52.46179 | 9.43067 | 3177 ft | 188 kts | 92° |
| 2026-05-06 13:37 | 52.46121 | 9.45143 | 2974 ft | 178 kts | 92° |
| 2026-05-06 13:37 | 52.46066 | 9.47131 | 2737 ft | 175 kts | 92° |
| 2026-05-06 13:37 | 52.46012 | 9.49085 | 2498 ft | 168 kts | 92° |
| 2026-05-06 13:37 | 52.45960 | 9.50938 | 2261 ft | 155 kts | 91° |
| 2026-05-06 13:38 | 52.45913 | 9.52646 | 2073 ft | 152 kts | 91° |
| 2026-05-06 13:38 | 52.45865 | 9.54388 | 1859 ft | 153 kts | 90° |
| 2026-05-06 13:38 | 52.45817 | 9.56119 | 1650 ft | 147 kts | 90° |
| 2026-05-06 13:38 | 52.45772 | 9.57722 | 1444 ft | 134 kts | 90° |
| 2026-05-06 13:39 | 52.45732 | 9.59176 | 1284 ft | 125 kts | 90° |
| 2026-05-06 13:39 | 52.45694 | 9.60606 | 1092 ft | 125 kts | 89° |
| 2026-05-06 13:39 | 52.45654 | 9.62034 | 906 ft | 124 kts | 90° |
| 2026-05-06 13:39 | 52.45614 | 9.63466 | 733 ft | 128 kts | 90° |
| 2026-05-06 13:40 | 52.45574 | 9.64919 | 549 ft | 125 kts | 89° |
| 2026-05-06 13:40 | 52.45533 | 9.66348 | 404 ft | 126 kts | 89° |
| 2026-05-06 13:40 | 52.45491 | 9.67802 | 231 ft | 127 kts | 89° |
| 2026-05-06 13:40 | 52.45459 | 9.69170 | 195 ft | 101 kts | 92° |
| 2026-05-06 13:41 | 52.45441 | 9.69915 | 182 ft | 50 kts | 92° |
| 2026-05-06 13:41 | 52.45427 | 9.70431 | 182 ft | 34 kts | 92° |
| 2026-05-06 13:41 | 52.45450 | 9.70658 | 182 ft | 12 kts | 33° |
| 2026-05-06 13:41 | 52.45512 | 9.70670 | 178 ft | 9 kts | 3° |
| 2026-05-06 13:42 | 52.45540 | 9.70673 | 178 ft | 0 kts | 2° |
| 2026-05-06 13:42 | 52.45557 | 9.70674 | 178 ft | 10 kts | 2° |
| 2026-05-06 13:42 | 52.45629 | 9.70647 | 178 ft | 10 kts | 321° |
| 2026-05-06 13:42 | 52.45652 | 9.70552 | 178 ft | 9 kts | 277° |
| 2026-05-06 13:43 | 52.45659 | 9.70426 | 178 ft | 14 kts | 274° |
| 2026-05-06 13:43 | 52.45664 | 9.70266 | 178 ft | 14 kts | 272° |
| 2026-05-06 13:43 | 52.45667 | 9.70107 | 178 ft | 14 kts | 272° |
| 2026-05-06 13:43 | 52.45671 | 9.69942 | 178 ft | 14 kts | 272° |
| 2026-05-06 13:44 | 52.45675 | 9.69785 | 178 ft | 13 kts | 272° |
| 2026-05-06 13:44 | 52.45679 | 9.69639 | 178 ft | 12 kts | 272° |
| 2026-05-06 13:44 | 52.45696 | 9.69513 | 178 ft | 10 kts | 311° |
| 2026-05-06 13:44 | 52.45744 | 9.69443 | 178 ft | 9 kts | 308° |
| 2026-05-06 13:45 | 52.45759 | 9.69363 | 178 ft | 6 kts | 283° |
| 2026-05-06 13:45 | 52.45782 | 9.69351 | 178 ft | 3 kts | 357° |
| 2026-05-06 13:45 | 52.45815 | 9.69367 | 178 ft | 6 kts | 22° |
| 2026-05-06 13:46 | 52.45833 | 9.69383 | 178 ft | 0 kts | 30° |